Map

Track Data

SID SEASON NUMBER BASIN SUBBASIN NAME ISO_TIME NATURE LAT LON WMO_WIND WMO_PRES WMO_AGENCY TRACK_TYPE DIST2LAND LANDFALL IFLAG USA_AGENCY USA_ATCF_ID USA_LAT USA_LON USA_RECORD USA_STATUS USA_WIND USA_PRES USA_SSHS USA_R34_NE USA_R34_SE USA_R34_SW USA_R34_NW USA_R50_NE USA_R50_SE USA_R50_SW USA_R50_NW USA_R64_NE USA_R64_SE USA_R64_SW USA_R64_NW USA_POCI USA_ROCI USA_RMW USA_EYE TOKYO_LAT TOKYO_LON TOKYO_GRADE TOKYO_WIND TOKYO_PRES TOKYO_R50_DIR TOKYO_R50_LONG TOKYO_R50_SHORT TOKYO_R30_DIR TOKYO_R30_LONG TOKYO_R30_SHORT TOKYO_LAND CMA_LAT CMA_LON CMA_CAT CMA_WIND CMA_PRES HKO_LAT HKO_LON HKO_CAT HKO_WIND HKO_PRES NEWDELHI_LAT NEWDELHI_LON NEWDELHI_GRADE NEWDELHI_WIND NEWDELHI_PRES NEWDELHI_CI NEWDELHI_DP NEWDELHI_POCI REUNION_LAT REUNION_LON REUNION_TYPE REUNION_WIND REUNION_PRES REUNION_TNUM REUNION_CI REUNION_RMW REUNION_R34_NE REUNION_R34_SE REUNION_R34_SW REUNION_R34_NW REUNION_R50_NE REUNION_R50_SE REUNION_R50_SW REUNION_R50_NW REUNION_R64_NE REUNION_R64_SE REUNION_R64_SW REUNION_R64_NW BOM_LAT BOM_LON BOM_TYPE BOM_WIND BOM_PRES BOM_TNUM BOM_CI BOM_RMW BOM_R34_NE BOM_R34_SE BOM_R34_SW BOM_R34_NW BOM_R50_NE BOM_R50_SE BOM_R50_SW BOM_R50_NW BOM_R64_NE BOM_R64_SE BOM_R64_SW BOM_R64_NW BOM_ROCI BOM_POCI BOM_EYE BOM_POS_METHOD BOM_PRES_METHOD NADI_LAT NADI_LON NADI_CAT NADI_WIND NADI_PRES WELLINGTON_LAT WELLINGTON_LON WELLINGTON_WIND WELLINGTON_PRES DS824_LAT DS824_LON DS824_STAGE DS824_WIND DS824_PRES TD9636_LAT TD9636_LON TD9636_STAGE TD9636_WIND TD9636_PRES TD9635_LAT TD9635_LON TD9635_WIND TD9635_PRES TD9635_ROCI NEUMANN_LAT NEUMANN_LON NEUMANN_CLASS NEUMANN_WIND NEUMANN_PRES MLC_LAT MLC_LON MLC_CLASS MLC_WIND MLC_PRES USA_GUST BOM_GUST BOM_GUST_PER REUNION_GUST REUNION_GUST_PER USA_SEAHGT USA_SEARAD_NE USA_SEARAD_SE USA_SEARAD_SW USA_SEARAD_NW STORM_SPEED STORM_DIR
1993016S16042 1993 5 SI MM DESSILIA 1993-01-16 06:00:00 TS -16.0000 42.0000 20 1005 reunion main 164 164 _____O________ -1 -16.0000 42.0000 1 20 1005 1.50000 1.50000 11 176
1993016S16042 1993 5 SI MM DESSILIA 1993-01-16 09:00:00 TS -16.5625 42.0298 main 198 198 _____P________ -1 -16.5625 42.0298 1 21 1003 6 169
1993016S16042 1993 5 SI MM DESSILIA 1993-01-16 12:00:00 TS -16.5800 42.1200 23 1002 reunion main 207 204 O____O______O_ jtwc_sh SH111993 -15.8000 42.3000 20 -1 -17.1000 42.0000 2 23 1002 2.00000 2.00000 -15.8000 42.3000 TC 20 2 0
1993016S16042 1993 5 SI MM DESSILIA 1993-01-16 15:00:00 TS -16.7325 42.0114 main 204 195 P____P______P_ SH111993 -15.9025 42.1500 20 -1 -17.5625 41.8728 2 23 1002 -15.9025 42.1500 TC 20 3 239
1993016S16042 1993 5 SI MM DESSILIA 1993-01-16 18:00:00 TS -16.7200 41.8800 23 1002 reunion main 195 180 O____O______O_ jtwc_sh SH111993 -16.0000 42.0000 20 -1 -17.8000 41.7000 2 23 1002 2.00000 2.00000 -16.0000 42.0000 TC 20 3 297
1993016S16042 1993 5 SI MM DESSILIA 1993-01-16 21:00:00 TS -16.6149 41.7699 main 180 163 P____P______P_ SH111993 -16.0925 41.8500 20 -1 -17.6597 41.6099 2 23 1001 -16.0925 41.8500 TC 20 3 294
1993016S16042 1993 5 SI MM DESSILIA 1993-01-17 00:00:00 TS -16.6000 41.6000 23 1000 reunion main 163 146 O____O______O_ jtwc_sh SH111993 -16.2000 41.7000 20 -1 -17.4000 41.4000 2 23 1000 2.00000 2.00000 -16.2000 41.7000 TC 20 4 261
1993016S16042 1993 5 SI MM DESSILIA 1993-01-17 03:00:00 TS -16.6835 41.3192 main 146 126 P____P______P_ SH111993 -16.3500 41.5425 20 -1 -17.3505 40.8727 2 23 1000 -16.3500 41.5425 TC 20 6 253
1993016S16042 1993 5 SI MM DESSILIA 1993-01-17 06:00:00 TS -16.7667 41.0333 23 1000 reunion main 126 108 O____O______O_ jtwc_sh SH111993 -16.5000 41.4000 20 -1 -17.3000 40.3000 2 23 1000 2.00000 2.00000 -16.5000 41.4000 TC 20 5 259
1993016S16042 1993 5 SI MM DESSILIA 1993-01-17 09:00:00 TS -16.7766 40.8291 main 108 100 P____P______P_ SH111993 -16.6000 41.2924 20 -1 -17.1299 39.9023 2 25 1000 -16.6000 41.2924 TC 20 3 270
1993016S16042 1993 5 SI MM DESSILIA 1993-01-17 12:00:00 TS -16.7667 40.7000 27 1000 reunion main 100 91 O____O______O_ jtwc_sh SH111993 -16.7000 41.2000 20 -1 -16.9000 39.7000 2 27 1000 2.00000 2.00000 -16.7000 41.2000 TC 20 2 269
1993016S16042 1993 5 SI MM DESSILIA 1993-01-17 15:00:00 TS -16.7808 40.6392 main 91 91 P____P______P_ SH111993 -16.8425 41.1000 22 -1 -16.6574 39.7176 2 27 1000 -16.8425 41.1000 TC 22 1 245
1993016S16042 1993 5 SI MM DESSILIA 1993-01-17 18:00:00 TS -16.8000 40.6333 27 1000 reunion main 91 91 O____O______O_ jtwc_sh SH111993 -17.0000 41.0000 25 -1 -16.4000 39.9000 2 27 1000 2.00000 2.00000 -17.0000 41.0000 TC 25 0 0
1993016S16042 1993 5 SI MM DESSILIA 1993-01-17 21:00:00 TS -16.7967 40.6451 main 91 91 P____P______P_ SH111993 -17.1350 40.8925 25 -1 -16.1201 40.1502 2 27 1000 -17.1350 40.8925 TC 25 0 127
1993016S16042 1993 5 SI MM DESSILIA 1993-01-18 00:00:00 TS -16.8333 40.6667 27 1000 reunion main 100 100 O____O______O_ jtwc_sh SH111993 -17.3000 40.8000 25 -1 -15.9000 40.4000 2 27 1000 2.00000 2.00000 -17.3000 40.8000 TC 25 1 167
1993016S16042 1993 5 SI MM DESSILIA 1993-01-18 03:00:00 TS -16.9408 40.6791 main 105 105 P____P______P_ SH111993 -17.5275 40.7275 25 -1 -15.7674 40.5823 2 27 1000 -17.5275 40.7275 TC 25 3 0
1993016S16042 1993 5 SI MM DESSILIA 1993-01-18 06:00:00 TS -17.1333 40.6667 27 1000 reunion main 117 115 O____O______O_ jtwc_sh SH111993 -17.8000 40.7000 25 -1 -15.8000 40.6000 2 27 1000 2.00000 2.00000 -17.8000 40.7000 TC 25 5 189
1993016S16042 1993 5 SI MM DESSILIA 1993-01-18 09:00:00 TS -17.4109 40.5976 main 131 131 P____P______P_ SH111993 -18.1000 40.7349 25 -1 -16.0327 40.3228 2 27 1000 -18.1000 40.7349 TC 25 6 192
1993016S16042 1993 5 SI MM DESSILIA 1993-01-18 12:00:00 TS -17.7333 40.5333 27 1000 reunion main 153 153 O____O______O_ jtwc_sh SH111993 -18.4000 40.8000 25 -1 -16.4000 40.0000 2 27 1000 2.00000 2.00000 -18.4000 40.8000 TC 25 6 187
1993016S16042 1993 5 SI MM DESSILIA 1993-01-18 15:00:00 TS -18.0483 40.5275 main 183 183 P____P______P_ SH111993 -18.6725 40.8425 27 -1 -16.7999 39.8974 2 27 1000 -18.6725 40.8425 TC 27 6 176
1993016S16042 1993 5 SI MM DESSILIA 1993-01-18 18:00:00 TS -18.3333 40.5667 27 1000 reunion main 215 215 O____O______O_ jtwc_sh SH111993 -18.9000 40.9000 30 -1 -17.2000 39.9000 2 27 1000 2.00000 2.00000 -18.9000 40.9000 TC 30 5 168
1993016S16042 1993 5 SI MM DESSILIA 1993-01-18 21:00:00 TS -18.5483 40.6375 main 231 231 P____P______P_ SH111993 -19.0650 40.9925 30 -1 -17.5150 39.9275 2 27 1000 -19.0650 40.9925 TC 30 4 159
1993016S16042 1993 5 SI MM DESSILIA 1993-01-19 00:00:00 TS -18.7333 40.7333 27 1000 reunion main 254 254 O____O______O_ jtwc_sh SH111993 -19.2000 41.1000 30 -1 -17.8000 40.0000 2 27 1000 2.00000 2.00000 -19.2000 41.1000 TC 30 4 156
1993016S16042 1993 5 SI MM DESSILIA 1993-01-19 03:00:00 TS -18.9333 40.8209 main 278 278 P____P______P_ SH111993 -19.3500 41.2075 30 -1 -18.0999 40.0477 2 30 998 -19.3500 41.2075 TC 30 4 155
1993016S16042 1993 5 SI MM DESSILIA 1993-01-19 06:00:00 TS -19.1333 40.9333 33 997 reunion main 302 302 O____O______O_ jtwc_sh SH111993 -19.5000 41.3000 30 -1 -18.4000 40.2000 2 33 997 2.50000 2.50000 -19.5000 41.3000 TC 30 5 148
1993016S16042 1993 5 SI MM DESSILIA 1993-01-19 09:00:00 TS -19.3434 41.0924 main 321 307 P____P______P_ SH111993 -19.6575 41.3500 32 -1 -18.7153 40.5772 2 35 994 -19.6575 41.3500 TC 32 5 142
1993016S16042 1993 5 SI MM DESSILIA 1993-01-19 12:00:00 TS -19.5333 41.2667 37 992 reunion main 307 288 O____O______O_ jtwc_sh SH111993 -19.8000 41.4000 35 0 -19.0000 41.0000 2 37 992 2.50000 2.50000 -19.8000 41.4000 TC 35 5 135
1993016S16042 1993 5 SI MM DESSILIA 1993-01-19 15:00:00 TS -19.6717 41.4392 main 288 264 P____P______P_ SH111993 -19.9075 41.4925 35 0 -19.1999 41.3325 2 37 992 -19.9075 41.4925 TC 35 4 133
1993016S16042 1993 5 SI MM DESSILIA 1993-01-19 18:00:00 TS -19.8000 41.5667 37 992 reunion main 264 252 O____O______O_ jtwc_sh SH111993 -20.0000 41.6000 35 0 -19.4000 41.5000 2 37 992 2.50000 2.50000 -20.0000 41.6000 TC 35 3 160
1993016S16042 1993 5 SI MM DESSILIA 1993-01-19 21:00:00 TS -19.9666 41.5511 main 252 245 P____P______P_ SH111993 -20.0999 41.6776 35 0 -19.6998 41.2983 2 38 988 -20.0999 41.6776 TC 35 3 173
1993016S16042 1993 5 SI MM DESSILIA 1993-01-20 00:00:00 TS -20.1333 41.6000 40 985 reunion main 245 213 O____O______O_ jtwc_sh SH111993 -20.2000 41.8000 35 0 -20.0000 41.2000 2 40 985 2.50000 2.50000 -20.2000 41.8000 TC 35 4 132
1993016S16042 1993 5 SI MM DESSILIA 1993-01-20 03:00:00 TS -20.2567 41.8918 main 206 167 P____P______P_ SH111993 -20.2924 42.0051 35 0 -20.1852 41.6653 2 41 982 -20.2924 42.0051 TC 35 7 111
1993016S16042 1993 5 SI MM DESSILIA 1993-01-20 06:00:00 TS -20.4000 42.3333 43 980 reunion main 167 115 O____O______O_ jtwc_sh SH111993 -20.4000 42.3000 35 0 -20.4000 42.4000 3 43 980 3.00000 3.00000 -20.4000 42.3000 TC 35 9 112
1993016S16042 1993 5 SI MM DESSILIA 1993-01-20 09:00:00 TS -20.6184 42.8273 main 115 59 P____P______P_ SH111993 -20.5273 42.6477 35 0 -20.8006 43.1866 3 46 977 -20.5273 42.6477 TC 35 11 116
1993016S16042 1993 5 SI MM DESSILIA 1993-01-20 12:00:00 TS -20.8667 43.3667 50 975 reunion main 51 0 O____O______O_ jtwc_sh SH111993 -20.7000 43.1000 35 0 -21.2000 43.9000 3 50 975 3.50000 3.50000 -20.7000 43.1000 TC 35 11 116
1993016S16042 1993 5 SI MM DESSILIA 1993-01-20 15:00:00 TS -21.0948 43.8836 main 0 0 P____P______P_ SH111993 -20.9351 43.6699 32 -1 -21.4144 44.3108 3 -20.9351 43.6699 TC 32 11 117
1993016S16042 1993 5 SI MM DESSILIA 1993-01-20 18:00:00 TS -21.3600 44.4200 reunion main 0 0 O____O______O_ jtwc_sh SH111993 -21.2000 44.3000 30 -1 -21.6000 44.6000 8 9.90000 -21.2000 44.3000 TC 30 11 120
1993016S16042 1993 5 SI MM DESSILIA 1993-01-20 21:00:00 TS -21.6626 44.9337 main 0 0 P____P______P_ SH111993 -21.4553 44.9097 27 -1 -21.8700 44.9576 8 -21.4553 44.9097 TC 27 11 127
1993016S16042 1993 5 SI MM DESSILIA 1993-01-21 00:00:00 TS -22.0333 45.3667 reunion main 0 0 O____O______O_ jtwc_sh SH111993 -21.7000 45.5000 25 -1 -22.2000 45.3000 8 9.90000 -21.7000 45.5000 TC 25 11 147
1993016S16042 1993 5 SI MM DESSILIA 1993-01-21 03:00:00 NR -22.5998 45.5852 main 0 0 _____P________ SH111993 -1 -22.5998 45.5852 8 TC 11 153
1993016S16042 1993 5 SI MM DESSILIA 1993-01-21 06:00:00 NR -23.0000 45.9000 reunion main 0 0 _____O________ -1 -23.0000 45.9000 8 9.90000 10 135
1993016S16042 1993 5 SI MM DESSILIA 1993-01-21 09:00:00 NR -23.2926 46.3353 main 0 0 _____P________ -1 -23.2926 46.3353 8 10 126
1993016S16042 1993 5 SI MM DESSILIA 1993-01-21 12:00:00 NR -23.6000 46.8000 reunion main 0 0 _____O________ -1 -23.6000 46.8000 8 9.90000 11 132
1993016S16042 1993 5 SI MM DESSILIA 1993-01-21 15:00:00 NR -24.0124 47.2226 main 0 0 _____P________ -1 -24.0124 47.2226 8 12 141
1993016S16042 1993 5 SI MM DESSILIA 1993-01-21 18:00:00 TS -24.5000 47.6000 23 998 reunion main 30 30 _____O________ -1 -24.5000 47.6000 2 23 998 2.50000 2.50000 12 149
1993016S16042 1993 5 SI MM DESSILIA 1993-01-21 21:00:00 TS -25.0723 47.9150 main 81 81 _____P________ -1 -25.0723 47.9150 2 26 996 12 154
1993016S16042 1993 5 SI MM DESSILIA 1993-01-22 00:00:00 TS -25.6000 48.2000 30 995 reunion main 129 129 _____O________ -1 -25.6000 48.2000 2 30 995 2.50000 2.50000 10 150
1993016S16042 1993 5 SI MM DESSILIA 1993-01-22 03:00:00 TS -25.9447 48.4706 main 172 172 _____P________ -1 -25.9447 48.4706 2 31 993 8 138
1993016S16042 1993 5 SI MM DESSILIA 1993-01-22 06:00:00 TS -26.2000 48.8000 33 992 reunion main 216 216 _____O________ -1 -26.2000 48.8000 3 33 992 3.00000 3.00000 9 125
1993016S16042 1993 5 SI MM DESSILIA 1993-01-22 09:00:00 TS -26.4655 49.3147 main 276 276 _____P________ -1 -26.4655 49.3147 3 35 991 10 119
1993016S16042 1993 5 SI MM DESSILIA 1993-01-22 12:00:00 TS -26.7000 49.8000 37 990 reunion main 330 330 _____O________ -1 -26.7000 49.8000 3 37 990 3.00000 3.00000 8 124
1993016S16042 1993 5 SI MM DESSILIA 1993-01-22 15:00:00 TS -26.9072 50.0528 main 367 367 _____P________ -1 -26.9072 50.0528 3 37 990 5 138
1993016S16042 1993 5 SI MM DESSILIA 1993-01-22 18:00:00 TS -27.1000 50.2000 37 990 reunion main 388 388 _____O________ -1 -27.1000 50.2000 3 37 990 2.50000 3.00000 5 145
1993016S16042 1993 5 SI MM DESSILIA 1993-01-22 21:00:00 TS -27.2774 50.3428 main 409 409 _____P________ -1 -27.2774 50.3428 3 35 992 5 146
1993016S16042 1993 5 SI MM DESSILIA 1993-01-23 00:00:00 TS -27.5000 50.5000 33 995 reunion main 438 438 _____O________ -1 -27.5000 50.5000 2 33 995 2.50000 2.50000 6 147
1993016S16042 1993 5 SI MM DESSILIA 1993-01-23 03:00:00 TS -27.8200 50.7350 main 475 475 _____P________ -1 -27.8200 50.7350 2 30 997 8 148
1993016S16042 1993 5 SI MM DESSILIA 1993-01-23 06:00:00 TS -28.2000 51.0000 27 1000 reunion main 526 526 _____O________ -1 -28.2000 51.0000 2 27 1000 2.50000 2.50000 9 148
1993016S16042 1993 5 SI MM DESSILIA 1993-01-23 09:00:00 TS -28.6151 51.3020 main 578 578 _____P________ -1 -28.6151 51.3020 2 27 1000 9 151
1993016S16042 1993 5 SI MM DESSILIA 1993-01-23 12:00:00 TS -29.0000 51.5000 27 1000 reunion main 622 622 _____O________ -1 -29.0000 51.5000 2 27 1000 2.50000 2.50000 7 167
1993016S16042 1993 5 SI MM DESSILIA 1993-01-23 15:00:00 TS -29.2724 51.4753 main 646 639 _____P________ -1 -29.2724 51.4753 2 27 1000 5 199
1993016S16042 1993 5 SI MM DESSILIA 1993-01-23 18:00:00 TS -29.5000 51.3000 27 1000 reunion main 649 644 _____O________ -1 -29.5000 51.3000 2 27 1000 2.50000 2.50000 6 220
1993016S16042 1993 5 SI MM DESSILIA 1993-01-23 21:00:00 TS -29.7352 51.0353 main 647 647 _____P________ -1 -29.7352 51.0353 2 27 1000 7 221
1993016S16042 1993 5 SI MM DESSILIA 1993-01-24 00:00:00 TS -30.0000 50.8000 27 1000 reunion main 662 662 _____O________ -1 -30.0000 50.8000 2 27 1000 2.50000 2.50000 7 209
1993016S16042 1993 5 SI MM DESSILIA 1993-01-24 03:00:00 TS -30.3120 50.6735 main 685 685 _____P________ -1 -30.3120 50.6735 2 7 0
1993016S16042 1993 5 SI MM DESSILIA 1993-01-24 06:00:00 ET -30.7000 50.8000 reunion main 727 727 _____O________ -1 -30.7000 50.8000 5 9.90000 10 148
1993016S16042 1993 5 SI MM DESSILIA 1993-01-24 09:00:00 ET -31.1763 51.2901 main 800 800 _____P________ -1 -31.1763 51.2901 5 14 134
1993016S16042 1993 5 SI MM DESSILIA 1993-01-24 12:00:00 ET -31.7000 52.0000 reunion main 883 _____O________ -1 -31.7000 52.0000 5 9.90000 16 131

About IBTrACS Database

This database is a web-friendly format of International Best Track Archive for Climate Stewardship (IBTrACS), a global best track data archive curated by NOAA dating back to 1842.

Updated: 2021-11-26